Sunday, November 19, 2017, 4:59 AM GMT
Back to Local

CWIS, Charlevoix CS , Que.

Location: , , Canada Lat: 47.283
Local Time: 4:59 AM GMT ( 4:59 GMT) Lon: -70.633
Time Zone: GMT Elev: 2358 ft

Show me the last for .
Show Coded

Time T Td Feel RH Dir Speed Gust Alt SLP Vis Weather Sky Remarks
2017-11-19 04:00 20 20 13 98 40° 6 - - 29.50 0 None
2017-11-19 03:00 20 20 13 97 30° 6 - - 29.55 0 None
2017-11-19 02:00 20 18 14 91 30° 5 - - 29.59 0 None
2017-11-19 01:00 22 18 15 82 30° 6 - - 29.63 0 None
2017-11-19 00:00 24 15 17 68 40° 6 - - 29.64 0 None
2017-11-18 23:00 23 15 19 70 20° 3 - - 29.67 0 None
2017-11-18 22:00 24 18 19 77 10° 3 - - 29.68 0 None
2017-11-18 21:00 26 14 22 60 10° 3 - - 29.69 0 None
2017-11-18 20:00 26 15 18 60 130° 8 - - 29.72 0 None
2017-11-18 19:00 27 21 23 77 210° 3 - - 29.73 0 None
2017-11-18 18:00 28 19 17 67 150° 14 - - 29.74 0 None
2017-11-18 17:00 27 17 18 64 160° 10 - - 29.76 0 None
2017-11-18 16:00 29 16 23 57 70° 6 - - 29.78 0 None
2017-11-18 15:00 23 19 19 83 10° 3 - - 29.81 0 None
2017-11-18 14:00 18 16 - 91 150° 2 - - 29.85 0 None
2017-11-18 11:00 8 7 -10 94 140° 8 17 - 29.89 0 None
2017-11-18 10:00 6 5 -6 94 180° 8 - - 29.89 0 Peak wind: 19 mph (17 kts) from 90° at 21 min
2017-11-18 09:00 6 5 -12 95 90° 7 17 - 29.88 0 Peak wind: 19 mph (17 kts) from 40° at 21 min
2017-11-18 07:00 8 7 -11 92 80° 5 18 - 29.85 0 Peak wind: 19 mph (17 kts) from 60° at 36 min
2017-11-18 06:00 18 11 7 75 20° 8 - - 29.84 0 Peak wind: 19 mph (17 kts) from 70° at 08 min

Support USWX by starting your Amazon purchase here.